Blue Bay — V2CE6 — position and weather

sailwx.info

Track history (hours):
 
Tides and Currents Weather Stations Pressure Air Temp Water Temp Dewpoint Dewpoint Depression Visibility Wind Speed Wind Dir Waves Ship Positions

Blue Bay

Last reported at 2014-Jul-25 07:19 UTC. Time now 2014-Jul-28 08:27 UTC.
Position N 45°14' W 004°49'.

Length 89 m; draft 5.1 m.

Type: Cargo ship. MMSI: 304519000.

Date/timePositionNaut miles runAvg speedWind from/ knotsBaromVisibWave heightAir tempDewpointWater temp
2014-Jul-25 07:19N 45°14' W 004°49'120 9.0
2014-Jul-24 18:03N 46°08' W 002°17'510.0
2014-Jul-24 17:33N 46°11' W 002°11'1010.1
2014-Jul-24 16:33N 46°18' W 002°00'10 9.6
2014-Jul-24 15:33N 46°25' W 001°51'6 5.6
2014-Jul-24 14:33N 46°30' W 001°47'0 0.0
2014-Jul-24 13:31N 46°30' W 001°48'0 0.0
2014-Jul-24 12:31N 46°30' W 001°48'0 0.0
2014-Jul-24 11:31N 46°30' W 001°48'0 0.0
2014-Jul-24 10:31N 46°30' W 001°48'0 0.0
2014-Jul-24 09:31N 46°30' W 001°48'0 0.0
2014-Jul-24 08:31N 46°30' W 001°48'0 0.0
2014-Jul-24 07:31N 46°30' W 001°48'0 0.0
2014-Jul-24 06:31N 46°30' W 001°48'0 0.0
2014-Jul-24 05:31N 46°30' W 001°48'0 0.0
2014-Jul-24 04:31N 46°30' W 001°48'0 0.0
2014-Jul-24 03:31N 46°30' W 001°48'0 0.0
2014-Jul-24 02:31N 46°30' W 001°48'0 0.0
2014-Jul-24 01:31N 46°30' W 001°48'0 0.0
2014-Jul-24 00:31N 46°30' W 001°48'0 0.0
2014-Jul-23 23:31N 46°30' W 001°48'0 0.0
2014-Jul-23 22:31N 46°30' W 001°48'0 0.0
2014-Jul-23 21:31N 46°30' W 001°48'0 0.0
2014-Jul-23 20:31N 46°30' W 001°48'0 0.0
2014-Jul-23 19:31N 46°30' W 001°48'0 0.0
2014-Jul-23 18:31N 46°30' W 001°48'0 0.0
2014-Jul-23 17:31N 46°30' W 001°48'0 0.0
2014-Jul-23 16:31N 46°30' W 001°48'0 0.0
2014-Jul-23 15:31N 46°30' W 001°48'0 0.0
2014-Jul-23 14:31N 46°30' W 001°48'0 0.0
2014-Jul-23 13:31N 46°30' W 001°48'0 0.0
2014-Jul-23 12:31N 46°30' W 001°48'0 0.0
2014-Jul-23 11:31N 46°30' W 001°48'0 0.0
2014-Jul-23 10:31N 46°30' W 001°48'0 0.0
2014-Jul-23 09:31N 46°30' W 001°48'0 0.0
2014-Jul-23 08:31N 46°30' W 001°48'0 0.0
2014-Jul-23 07:31N 46°30' W 001°48'0 0.0
2014-Jul-23 06:31N 46°30' W 001°48'0 0.0
2014-Jul-23 05:31N 46°30' W 001°48'0 0.0
2014-Jul-23 04:31N 46°30' W 001°48'0 0.0
2014-Jul-23 03:31N 46°30' W 001°48'0 0.0
2014-Jul-23 02:31N 46°30' W 001°48'0 0.0
2014-Jul-23 01:31N 46°30' W 001°48'0 0.0
2014-Jul-23 00:31N 46°30' W 001°48'0 0.0
2014-Jul-22 23:31N 46°30' W 001°48'0 0.0
2014-Jul-22 22:31N 46°30' W 001°48'0 0.0
2014-Jul-22 21:31N 46°30' W 001°48'0 0.0
2014-Jul-22 20:31N 46°30' W 001°48'0 0.0
2014-Jul-22 19:31N 46°30' W 001°48'0 0.0
2014-Jul-22 18:31N 46°30' W 001°48'0 0.0
2014-Jul-22 17:31N 46°30' W 001°48'0 0.0
2014-Jul-22 16:31N 46°30' W 001°48'0 0.0
2014-Jul-22 15:31N 46°30' W 001°48'0 0.0
2014-Jul-22 14:31N 46°30' W 001°48'0 0.0
2014-Jul-22 13:33N 46°30' W 001°48'3 3.1
2014-Jul-22 12:33N 46°27' W 001°49'3 2.7
2014-Jul-22 11:33N 46°25' W 001°51'5 5.2
2014-Jul-22 10:33N 46°20' W 001°54'7 6.8
2014-Jul-22 09:33N 46°14' W 001°57'8 7.1
2014-Jul-22 08:29N 46°06' W 002°00'10 8.4
2014-Jul-22 07:18N 45°57' W 002°04'8 9.0
2014-Jul-22 06:22N 45°49' W 002°08'810.5
2014-Jul-22 05:33N 45°41' W 002°12'  
2014-Jul-19 14:33N 43°19' W 003°00'0 0.0
2014-Jul-19 13:33N 43°19' W 003°00'0 0.0
2014-Jul-19 12:33N 43°19' W 003°00'0 0.0
2014-Jul-19 11:33N 43°19' W 003°00'0 0.0
2014-Jul-19 10:33N 43°19' W 003°00'0 0.0
2014-Jul-19 09:33N 43°19' W 003°00'0 0.0
2014-Jul-19 08:33N 43°19' W 003°00'6 6.5
2014-Jul-19 07:33N 43°23' W 003°07'1 1.3
2014-Jul-19 06:31N 43°22' W 003°09'0 0.0
2014-Jul-19 05:31N 43°22' W 003°08'2 2.4
2014-Jul-19 04:34N 43°25' W 003°09'6 6.4
2014-Jul-19 03:34N 43°31' W 003°11'6 6.3
2014-Jul-19 02:34N 43°36' W 003°16'6 6.2
2014-Jul-19 01:34N 43°41' W 003°20'6 6.0
2014-Jul-19 00:34N 43°46' W 003°25'6 6.3
2014-Jul-18 23:34N 43°52' W 003°29'6 6.1
2014-Jul-18 22:33N 43°57' W 003°33'29 7.1
2014-Jul-18 18:33N 44°22' W 003°54'  
2014-Jul-16 14:22N 51°02' W 009°58'7 8.9
2014-Jul-16 13:33N 51°08' W 010°04'9 8.8
2014-Jul-16 12:33N 51°16' W 010°11'10 9.0
2014-Jul-16 11:25N 51°25' W 010°20'8 9.0
2014-Jul-16 10:28N 51°32' W 010°26'  
Track history (hours):
 
Tides and Currents Weather Stations Pressure Air Temp Water Temp Dewpoint Dewpoint Depression Visibility Wind Speed Wind Dir Waves Ship Positions

Blue Bay

Last reported at 2014-Jul-25 07:19 UTC. Time now 2014-Jul-28 08:27 UTC.
Position N 45°14' W 004°49'.

Length 89 m; draft 5.1 m.

Type: Cargo ship. MMSI: 304519000.

Date/timePositionNaut miles runAvg speedWind from/ knotsBaromVisibWave heightAir tempDewpointWater temp
2014-Jul-25 07:19N 45°14' W 004°49'120 9.0
2014-Jul-24 18:03N 46°08' W 002°17'510.0
2014-Jul-24 17:33N 46°11' W 002°11'1010.1
2014-Jul-24 16:33N 46°18' W 002°00'10 9.6
2014-Jul-24 15:33N 46°25' W 001°51'6 5.6
2014-Jul-24 14:33N 46°30' W 001°47'0 0.0
2014-Jul-24 13:31N 46°30' W 001°48'0 0.0
2014-Jul-24 12:31N 46°30' W 001°48'0 0.0
2014-Jul-24 11:31N 46°30' W 001°48'0 0.0
2014-Jul-24 10:31N 46°30' W 001°48'0 0.0
2014-Jul-24 09:31N 46°30' W 001°48'0 0.0
2014-Jul-24 08:31N 46°30' W 001°48'0 0.0
2014-Jul-24 07:31N 46°30' W 001°48'0 0.0
2014-Jul-24 06:31N 46°30' W 001°48'0 0.0
2014-Jul-24 05:31N 46°30' W 001°48'0 0.0
2014-Jul-24 04:31N 46°30' W 001°48'0 0.0
2014-Jul-24 03:31N 46°30' W 001°48'0 0.0
2014-Jul-24 02:31N 46°30' W 001°48'0 0.0
2014-Jul-24 01:31N 46°30' W 001°48'0 0.0
2014-Jul-24 00:31N 46°30' W 001°48'0 0.0
2014-Jul-23 23:31N 46°30' W 001°48'0 0.0
2014-Jul-23 22:31N 46°30' W 001°48'0 0.0
2014-Jul-23 21:31N 46°30' W 001°48'0 0.0
2014-Jul-23 20:31N 46°30' W 001°48'0 0.0
2014-Jul-23 19:31N 46°30' W 001°48'0 0.0
2014-Jul-23 18:31N 46°30' W 001°48'0 0.0
2014-Jul-23 17:31N 46°30' W 001°48'0 0.0
2014-Jul-23 16:31N 46°30' W 001°48'0 0.0
2014-Jul-23 15:31N 46°30' W 001°48'0 0.0
2014-Jul-23 14:31N 46°30' W 001°48'0 0.0
2014-Jul-23 13:31N 46°30' W 001°48'0 0.0
2014-Jul-23 12:31N 46°30' W 001°48'0 0.0
2014-Jul-23 11:31N 46°30' W 001°48'0 0.0
2014-Jul-23 10:31N 46°30' W 001°48'0 0.0
2014-Jul-23 09:31N 46°30' W 001°48'0 0.0
2014-Jul-23 08:31N 46°30' W 001°48'0 0.0
2014-Jul-23 07:31N 46°30' W 001°48'0 0.0
2014-Jul-23 06:31N 46°30' W 001°48'0 0.0
2014-Jul-23 05:31N 46°30' W 001°48'0 0.0
2014-Jul-23 04:31N 46°30' W 001°48'0 0.0
2014-Jul-23 03:31N 46°30' W 001°48'0 0.0
2014-Jul-23 02:31N 46°30' W 001°48'0 0.0
2014-Jul-23 01:31N 46°30' W 001°48'0 0.0
2014-Jul-23 00:31N 46°30' W 001°48'0 0.0
2014-Jul-22 23:31N 46°30' W 001°48'0 0.0
2014-Jul-22 22:31N 46°30' W 001°48'0 0.0
2014-Jul-22 21:31N 46°30' W 001°48'0 0.0
2014-Jul-22 20:31N 46°30' W 001°48'0 0.0
2014-Jul-22 19:31N 46°30' W 001°48'0 0.0
2014-Jul-22 18:31N 46°30' W 001°48'0 0.0
2014-Jul-22 17:31N 46°30' W 001°48'0 0.0
2014-Jul-22 16:31N 46°30' W 001°48'0 0.0
2014-Jul-22 15:31N 46°30' W 001°48'0 0.0
2014-Jul-22 14:31N 46°30' W 001°48'0 0.0
2014-Jul-22 13:33N 46°30' W 001°48'3 3.1
2014-Jul-22 12:33N 46°27' W 001°49'3 2.7
2014-Jul-22 11:33N 46°25' W 001°51'5 5.2
2014-Jul-22 10:33N 46°20' W 001°54'7 6.8
2014-Jul-22 09:33N 46°14' W 001°57'8 7.1
2014-Jul-22 08:29N 46°06' W 002°00'10 8.4
2014-Jul-22 07:18N 45°57' W 002°04'8 9.0
2014-Jul-22 06:22N 45°49' W 002°08'810.5
2014-Jul-22 05:33N 45°41' W 002°12'  
2014-Jul-19 14:33N 43°19' W 003°00'0 0.0
2014-Jul-19 13:33N 43°19' W 003°00'0 0.0
2014-Jul-19 12:33N 43°19' W 003°00'0 0.0
2014-Jul-19 11:33N 43°19' W 003°00'0 0.0
2014-Jul-19 10:33N 43°19' W 003°00'0 0.0
2014-Jul-19 09:33N 43°19' W 003°00'0 0.0
2014-Jul-19 08:33N 43°19' W 003°00'6 6.5
2014-Jul-19 07:33N 43°23' W 003°07'1 1.3
2014-Jul-19 06:31N 43°22' W 003°09'0 0.0
2014-Jul-19 05:31N 43°22' W 003°08'2 2.4
2014-Jul-19 04:34N 43°25' W 003°09'6 6.4
2014-Jul-19 03:34N 43°31' W 003°11'6 6.3
2014-Jul-19 02:34N 43°36' W 003°16'6 6.2
2014-Jul-19 01:34N 43°41' W 003°20'6 6.0
2014-Jul-19 00:34N 43°46' W 003°25'6 6.3
2014-Jul-18 23:34N 43°52' W 003°29'6 6.1
2014-Jul-18 22:33N 43°57' W 003°33'29 7.1
2014-Jul-18 18:33N 44°22' W 003°54'  
2014-Jul-16 14:22N 51°02' W 009°58'7 8.9
2014-Jul-16 13:33N 51°08' W 010°04'9 8.8
2014-Jul-16 12:33N 51°16' W 010°11'10 9.0
2014-Jul-16 11:25N 51°25' W 010°20'8 9.0
2014-Jul-16 10:28N 51°32' W 010°26'  

Dump ship's entire track history